Alexander 3 — SW6137 — position and weather

sailwx.info

Track history (hours):
 
Tides and Currents Weather Stations Pressure Air Temp Water Temp Dewpoint Dewpoint Depression Visibility Wind Speed Wind Dir Waves Ship Positions

Alexander 3

Last reported at 2014-Sep-03 04:34 UTC. Time now 2014-Sep-03 04:59 UTC.
Position N 37°56' E 023°36'.

Length 38 m; draft 5.6 m.

Type: Tug. MMSI: 240733000.

Date/timePositionNaut miles runAvg speedWind from/ knotsBaromVisibWave heightAir tempDewpointWater temp
2014-Sep-03 04:34N 37°56' E 023°36'1 1.2
2014-Sep-03 03:34N 37°57' E 023°35'2 2.0
2014-Sep-03 02:33N 37°56' E 023°37'0 0.0
2014-Sep-03 01:34N 37°56' E 023°37'2 0.1
2014-Sep-02 11:34N 37°57' E 023°35'1 0.9
2014-Sep-02 10:34N 37°57' E 023°36'0 0.0
2014-Sep-02 09:33N 37°57' E 023°36'0 0.0
2014-Sep-02 08:33N 37°57' E 023°36'0 0.0
2014-Sep-02 07:34N 37°57' E 023°36'0 0.0
2014-Sep-02 06:34N 37°57' E 023°36'0 0.4
2014-Sep-02 05:34N 37°58' E 023°36'1 0.8
2014-Sep-02 04:33N 37°57' E 023°35'1 0.6
2014-Sep-02 03:33N 37°57' E 023°36'2 0.1
2014-Aug-31 21:15N 37°56' E 023°37'2 2.7
2014-Aug-31 20:33N 37°57' E 023°35'2 1.8
2014-Aug-31 19:33N 37°55' E 023°35'2 1.9
2014-Aug-31 18:33N 37°57' E 023°35'1 1.1
2014-Aug-31 17:33N 37°57' E 023°37'0 0.0
2014-Aug-31 16:33N 37°57' E 023°37'0 0.0
2014-Aug-31 15:33N 37°57' E 023°37'0 0.0
2014-Aug-31 14:33N 37°57' E 023°37'0 0.0
2014-Aug-31 13:33N 37°57' E 023°37'0 0.2
2014-Aug-31 12:33N 37°58' E 023°36'0 0.4
2014-Aug-31 11:33N 37°57' E 023°36'0 0.2
2014-Aug-31 10:33N 37°57' E 023°36'0 0.0
2014-Aug-31 09:34N 37°57' E 023°36'0 0.0
2014-Aug-31 08:34N 37°57' E 023°36'0 0.0
2014-Aug-31 07:33N 37°57' E 023°36'0 0.4
2014-Aug-31 06:33N 37°57' E 023°36'2 2.1
2014-Aug-31 05:33N 37°55' E 023°35'2 1.8
2014-Aug-31 04:33N 37°57' E 023°35'2 1.8
2014-Aug-31 03:33N 37°56' E 023°37'1 0.0
2014-Aug-30 10:33N 37°56' E 023°36'1 0.7
2014-Aug-30 09:33N 37°57' E 023°36'0 0.0
2014-Aug-30 08:33N 37°57' E 023°36'0 0.0
2014-Aug-30 07:33N 37°57' E 023°36'0 0.0
2014-Aug-30 06:33N 37°57' E 023°36'0 0.0
2014-Aug-30 05:33N 37°57' E 023°36'1 0.5
2014-Aug-30 04:33N 37°57' E 023°36'2 1.6
2014-Aug-30 03:33N 37°56' E 023°37'2 0.1
2014-Aug-28 17:33N 37°57' E 023°35'5 4.3
2014-Aug-28 16:31N 38°01' E 023°36'4 4.1
2014-Aug-28 15:32N 38°02' E 023°31'0 0.3
2014-Aug-28 14:26N 38°02' E 023°30'6 7.1
2014-Aug-28 13:33N 37°57' E 023°35'1 0.9
2014-Aug-28 12:33N 37°57' E 023°36'0 0.0
2014-Aug-28 11:33N 37°57' E 023°36'1 0.7
2014-Aug-28 10:33N 37°57' E 023°36'1 1.5
2014-Aug-28 09:33N 37°58' E 023°34'0 0.0
2014-Aug-28 08:33N 37°58' E 023°34'0 0.0
2014-Aug-28 07:33N 37°58' E 023°34'0 0.0
2014-Aug-28 06:33N 37°58' E 023°34'0 0.0
2014-Aug-28 05:33N 37°58' E 023°34'0 0.0
2014-Aug-28 04:32N 37°58' E 023°34'1 1.2
2014-Aug-28 03:33N 37°57' E 023°35'2 0.1
2014-Aug-27 00:05N 37°56' E 023°37'2 3.7
2014-Aug-26 23:33N 37°57' E 023°35'0 0.1
2014-Aug-26 22:33N 37°57' E 023°35'1 0.6
2014-Aug-26 21:33N 37°57' E 023°36'0 0.4
2014-Aug-26 20:33N 37°57' E 023°36'0 0.0
2014-Aug-26 19:33N 37°57' E 023°36'0 0.0
2014-Aug-26 18:33N 37°57' E 023°36'0 0.0
2014-Aug-26 17:33N 37°57' E 023°36'0 0.0
2014-Aug-26 16:33N 37°57' E 023°36'0 0.0
2014-Aug-26 15:33N 37°57' E 023°36'0 0.0
2014-Aug-26 14:33N 37°57' E 023°36'0 0.0
2014-Aug-26 13:33N 37°57' E 023°36'0 0.0
2014-Aug-26 12:33N 37°57' E 023°36'0 0.0
2014-Aug-26 11:33N 37°57' E 023°36'1 0.5
2014-Aug-26 10:33N 37°57' E 023°36'1 1.5
2014-Aug-26 09:33N 37°56' E 023°37'3 3.1
2014-Aug-26 08:33N 37°57' E 023°34'5 5.2
2014-Aug-26 07:33N 38°02' E 023°30'1 1.4
2014-Aug-26 06:33N 38°01' E 023°31'3 3.4
2014-Aug-26 05:33N 37°57' E 023°33'2 2.3
2014-Aug-26 04:33N 37°56' E 023°35'2 2.1
2014-Aug-26 03:33N 37°56' E 023°37'1 0.1
2014-Aug-25 16:33N 37°57' E 023°36'7 7.3
2014-Aug-25 15:32N 38°00' E 023°27'4 4.3
2014-Aug-25 14:33N 37°58' E 023°23'2 2.0
2014-Aug-25 13:33N 37°59' E 023°25'6 5.9
2014-Aug-25 12:33N 37°58' E 023°33'3 2.8
2014-Aug-25 11:33N 37°57' E 023°36'0 0.4
2014-Aug-25 10:33N 37°57' E 023°36'0 0.0
2014-Aug-25 09:33N 37°57' E 023°36'0 0.0
2014-Aug-25 08:33N 37°57' E 023°36'0 0.0
2014-Aug-25 07:05N 37°57' E 023°36'0 0.5
2014-Aug-25 06:33N 37°58' E 023°36'1 0.7
2014-Aug-25 05:32N 37°57' E 023°36'2 1.3
2014-Aug-25 04:20N 37°56' E 023°37'2 0.1
2014-Aug-24 12:34N 37°57' E 023°35'2 1.7
2014-Aug-24 11:34N 37°55' E 023°35'2 2.0
2014-Aug-24 10:34N 37°57' E 023°36'0 0.0
2014-Aug-24 09:34N 37°57' E 023°36'0 0.0
2014-Aug-24 08:34N 37°57' E 023°36'0 0.0
2014-Aug-24 07:34N 37°57' E 023°36'0 0.0
2014-Aug-24 06:34N 37°57' E 023°36'0 0.5
2014-Aug-24 05:34N 37°57' E 023°36'1 1.0
2014-Aug-24 04:34N 37°57' E 023°35'  
Track history (hours):
 
Tides and Currents Weather Stations Pressure Air Temp Water Temp Dewpoint Dewpoint Depression Visibility Wind Speed Wind Dir Waves Ship Positions

Alexander 3

Last reported at 2014-Sep-03 04:34 UTC. Time now 2014-Sep-03 04:59 UTC.
Position N 37°56' E 023°36'.

Length 38 m; draft 5.6 m.

Type: Tug. MMSI: 240733000.

Date/timePositionNaut miles runAvg speedWind from/ knotsBaromVisibWave heightAir tempDewpointWater temp
2014-Sep-03 04:34N 37°56' E 023°36'1 1.2
2014-Sep-03 03:34N 37°57' E 023°35'2 2.0
2014-Sep-03 02:33N 37°56' E 023°37'0 0.0
2014-Sep-03 01:34N 37°56' E 023°37'2 0.1
2014-Sep-02 11:34N 37°57' E 023°35'1 0.9
2014-Sep-02 10:34N 37°57' E 023°36'0 0.0
2014-Sep-02 09:33N 37°57' E 023°36'0 0.0
2014-Sep-02 08:33N 37°57' E 023°36'0 0.0
2014-Sep-02 07:34N 37°57' E 023°36'0 0.0
2014-Sep-02 06:34N 37°57' E 023°36'0 0.4
2014-Sep-02 05:34N 37°58' E 023°36'1 0.8
2014-Sep-02 04:33N 37°57' E 023°35'1 0.6
2014-Sep-02 03:33N 37°57' E 023°36'2 0.1
2014-Aug-31 21:15N 37°56' E 023°37'2 2.7
2014-Aug-31 20:33N 37°57' E 023°35'2 1.8
2014-Aug-31 19:33N 37°55' E 023°35'2 1.9
2014-Aug-31 18:33N 37°57' E 023°35'1 1.1
2014-Aug-31 17:33N 37°57' E 023°37'0 0.0
2014-Aug-31 16:33N 37°57' E 023°37'0 0.0
2014-Aug-31 15:33N 37°57' E 023°37'0 0.0
2014-Aug-31 14:33N 37°57' E 023°37'0 0.0
2014-Aug-31 13:33N 37°57' E 023°37'0 0.2
2014-Aug-31 12:33N 37°58' E 023°36'0 0.4
2014-Aug-31 11:33N 37°57' E 023°36'0 0.2
2014-Aug-31 10:33N 37°57' E 023°36'0 0.0
2014-Aug-31 09:34N 37°57' E 023°36'0 0.0
2014-Aug-31 08:34N 37°57' E 023°36'0 0.0
2014-Aug-31 07:33N 37°57' E 023°36'0 0.4
2014-Aug-31 06:33N 37°57' E 023°36'2 2.1
2014-Aug-31 05:33N 37°55' E 023°35'2 1.8
2014-Aug-31 04:33N 37°57' E 023°35'2 1.8
2014-Aug-31 03:33N 37°56' E 023°37'1 0.0
2014-Aug-30 10:33N 37°56' E 023°36'1 0.7
2014-Aug-30 09:33N 37°57' E 023°36'0 0.0
2014-Aug-30 08:33N 37°57' E 023°36'0 0.0
2014-Aug-30 07:33N 37°57' E 023°36'0 0.0
2014-Aug-30 06:33N 37°57' E 023°36'0 0.0
2014-Aug-30 05:33N 37°57' E 023°36'1 0.5
2014-Aug-30 04:33N 37°57' E 023°36'2 1.6
2014-Aug-30 03:33N 37°56' E 023°37'2 0.1
2014-Aug-28 17:33N 37°57' E 023°35'5 4.3
2014-Aug-28 16:31N 38°01' E 023°36'4 4.1
2014-Aug-28 15:32N 38°02' E 023°31'0 0.3
2014-Aug-28 14:26N 38°02' E 023°30'6 7.1
2014-Aug-28 13:33N 37°57' E 023°35'1 0.9
2014-Aug-28 12:33N 37°57' E 023°36'0 0.0
2014-Aug-28 11:33N 37°57' E 023°36'1 0.7
2014-Aug-28 10:33N 37°57' E 023°36'1 1.5
2014-Aug-28 09:33N 37°58' E 023°34'0 0.0
2014-Aug-28 08:33N 37°58' E 023°34'0 0.0
2014-Aug-28 07:33N 37°58' E 023°34'0 0.0
2014-Aug-28 06:33N 37°58' E 023°34'0 0.0
2014-Aug-28 05:33N 37°58' E 023°34'0 0.0
2014-Aug-28 04:32N 37°58' E 023°34'1 1.2
2014-Aug-28 03:33N 37°57' E 023°35'2 0.1
2014-Aug-27 00:05N 37°56' E 023°37'2 3.7
2014-Aug-26 23:33N 37°57' E 023°35'0 0.1
2014-Aug-26 22:33N 37°57' E 023°35'1 0.6
2014-Aug-26 21:33N 37°57' E 023°36'0 0.4
2014-Aug-26 20:33N 37°57' E 023°36'0 0.0
2014-Aug-26 19:33N 37°57' E 023°36'0 0.0
2014-Aug-26 18:33N 37°57' E 023°36'0 0.0
2014-Aug-26 17:33N 37°57' E 023°36'0 0.0
2014-Aug-26 16:33N 37°57' E 023°36'0 0.0
2014-Aug-26 15:33N 37°57' E 023°36'0 0.0
2014-Aug-26 14:33N 37°57' E 023°36'0 0.0
2014-Aug-26 13:33N 37°57' E 023°36'0 0.0
2014-Aug-26 12:33N 37°57' E 023°36'0 0.0
2014-Aug-26 11:33N 37°57' E 023°36'1 0.5
2014-Aug-26 10:33N 37°57' E 023°36'1 1.5
2014-Aug-26 09:33N 37°56' E 023°37'3 3.1
2014-Aug-26 08:33N 37°57' E 023°34'5 5.2
2014-Aug-26 07:33N 38°02' E 023°30'1 1.4
2014-Aug-26 06:33N 38°01' E 023°31'3 3.4
2014-Aug-26 05:33N 37°57' E 023°33'2 2.3
2014-Aug-26 04:33N 37°56' E 023°35'2 2.1
2014-Aug-26 03:33N 37°56' E 023°37'1 0.1
2014-Aug-25 16:33N 37°57' E 023°36'7 7.3
2014-Aug-25 15:32N 38°00' E 023°27'4 4.3
2014-Aug-25 14:33N 37°58' E 023°23'2 2.0
2014-Aug-25 13:33N 37°59' E 023°25'6 5.9
2014-Aug-25 12:33N 37°58' E 023°33'3 2.8
2014-Aug-25 11:33N 37°57' E 023°36'0 0.4
2014-Aug-25 10:33N 37°57' E 023°36'0 0.0
2014-Aug-25 09:33N 37°57' E 023°36'0 0.0
2014-Aug-25 08:33N 37°57' E 023°36'0 0.0
2014-Aug-25 07:05N 37°57' E 023°36'0 0.5
2014-Aug-25 06:33N 37°58' E 023°36'1 0.7
2014-Aug-25 05:32N 37°57' E 023°36'2 1.3
2014-Aug-25 04:20N 37°56' E 023°37'2 0.1
2014-Aug-24 12:34N 37°57' E 023°35'2 1.7
2014-Aug-24 11:34N 37°55' E 023°35'2 2.0
2014-Aug-24 10:34N 37°57' E 023°36'0 0.0
2014-Aug-24 09:34N 37°57' E 023°36'0 0.0
2014-Aug-24 08:34N 37°57' E 023°36'0 0.0
2014-Aug-24 07:34N 37°57' E 023°36'0 0.0
2014-Aug-24 06:34N 37°57' E 023°36'0 0.5
2014-Aug-24 05:34N 37°57' E 023°36'1 1.0
2014-Aug-24 04:34N 37°57' E 023°35'  

Dump ship's entire track history